Time;durP1;ratioP1;P1;durP2;ratioP2;P2;SDS_P1;SDS_P2;PMS_P1;PMS_P2;Temp;Humidity;BMP_temperature;BMP_pressure;BME280_temperature;BME280_humidity;BME280_pressure;Samples;Min_cycle;Max_cycle;Signal;HPM_P1;HPM_P2
2022/02/02 00:05:01;;;;;;;;;;;3.40;99.90;;;;;;4990529;28;19918;-80
2022/02/02 00:07:38;;;;;;;;;;;3.50;99.90;;;;;;4990845;28;19914;-83
2022/02/02 00:10:16;;;;;;;;;;;3.50;99.90;;;;;;4990980;28;20289;-81
2022/02/02 00:12:46;;;;;;;;;;;3.50;99.90;;;;;;4978980;28;19954;-81
2022/02/02 00:16:24;;;;;;;;;;;3.50;99.90;;;;;;4981157;28;19925;-84
2022/02/02 00:20:56;;;;;;;;;;;3.60;99.90;;;;;;4990101;28;19914;-82
2022/02/02 00:23:27;;;;;;;;;;;3.60;99.90;;;;;;4989796;28;20012;-81
2022/02/02 00:25:59;;;;;;;;;;;3.60;99.90;;;;;;4991092;28;19920;-81
2022/02/02 00:28:30;;;;;;;;;;;3.60;99.90;;;;;;4990678;28;19924;-85
2022/02/02 00:31:00;;;;;;;;;;;3.60;99.90;;;;;;4990690;28;20364;-80
2022/02/02 00:33:30;;;;;;;;;;;3.60;99.90;;;;;;4987655;28;19972;-82
2022/02/02 00:38:52;;;;;;;;;;;3.60;99.90;;;;;;4980144;28;19925;-80
2022/02/02 00:41:18;;;;;;;;;;;3.60;99.90;;;;;;4987644;28;20428;-81
2022/02/02 00:43:46;;;;;;;;;;;3.60;99.90;;;;;;4978917;28;20069;-80
2022/02/02 00:46:12;;;;;;;;;;;3.70;99.90;;;;;;4991232;28;20000;-82
2022/02/02 00:48:37;;;;;;;;;;;3.70;99.90;;;;;;4974189;28;20008;-80
2022/02/02 00:51:03;;;;;;;;;;;3.70;99.90;;;;;;4990677;28;19918;-79
2022/02/02 00:53:29;;;;;;;;;;;3.70;99.90;;;;;;4989703;28;20407;-80
2022/02/02 00:55:55;;;;;;;;;;;3.70;99.90;;;;;;4990537;28;19920;-82
2022/02/02 00:58:23;;;;;;;;;;;3.70;99.90;;;;;;4991298;28;19940;-80
2022/02/02 01:00:49;;;;;;;;;;;3.70;99.90;;;;;;4990106;28;19917;-83
2022/02/02 01:03:15;;;;;;;;;;;3.70;99.90;;;;;;4988412;28;20479;-79
2022/02/02 01:05:40;;;;;;;;;;;3.70;99.90;;;;;;4986888;28;19914;-80
2022/02/02 01:11:18;;;;;;;;;;;3.70;99.90;;;;;;4969413;28;19928;-80
2022/02/02 01:15:08;;;;;;;;;;;3.70;99.90;;;;;;4988157;28;19926;-80
2022/02/02 01:17:15;;;;;;;;;;;3.70;99.90;;;;;;4977627;28;19920;-80
2022/02/02 01:29:47;;;;;;;;;;;3.70;99.90;;;;;;4993691;28;19914;-79
2022/02/02 01:32:13;;;;;;;;;;;3.60;99.90;;;;;;4990521;28;19914;-80
2022/02/02 01:34:38;;;;;;;;;;;3.60;99.90;;;;;;4993238;28;19922;-80
2022/02/02 01:37:04;;;;;;;;;;;3.60;99.90;;;;;;5000922;28;19930;-81
2022/02/02 01:39:31;;;;;;;;;;;3.60;99.90;;;;;;4995190;28;20338;-82
2022/02/02 01:41:58;;;;;;;;;;;3.60;99.90;;;;;;4994352;28;20300;-80
2022/02/02 01:44:33;;;;;;;;;;;3.60;99.90;;;;;;4973707;28;19918;-81
2022/02/02 01:47:00;;;;;;;;;;;3.50;99.90;;;;;;4977780;28;19918;-79
2022/02/02 01:55:07;;;;;;;;;;;3.30;99.90;;;;;;4924842;28;20445;-79
2022/02/02 02:00:17;;;;;;;;;;;3.20;99.90;;;;;;4989914;28;19973;-80
2022/02/02 02:02:43;;;;;;;;;;;3.10;99.90;;;;;;4989730;28;19918;-79
2022/02/02 02:05:08;;;;;;;;;;;3.10;99.90;;;;;;4991971;28;19925;-80
2022/02/02 02:07:34;;;;;;;;;;;3.00;99.90;;;;;;4992026;28;20276;-80
2022/02/02 02:10:00;;;;;;;;;;;3.00;99.90;;;;;;4993013;28;19917;-80
2022/02/02 02:12:32;;;;;;;;;;;2.90;99.90;;;;;;4978781;28;20411;-80
2022/02/02 02:15:03;;;;;;;;;;;2.90;99.90;;;;;;4994543;28;20372;-79
2022/02/02 02:17:28;;;;;;;;;;;2.90;99.90;;;;;;4994701;28;19989;-80
2022/02/02 02:19:54;;;;;;;;;;;2.90;99.90;;;;;;4975994;28;20420;-80
2022/02/02 02:22:34;;;;;;;;;;;2.80;99.90;;;;;;4986440;28;20005;-82
2022/02/02 02:24:59;;;;;;;;;;;2.80;99.90;;;;;;4991582;28;19949;-79
2022/02/02 02:27:26;;;;;;;;;;;2.80;99.90;;;;;;4991994;28;20381;-79
2022/02/02 02:30:09;;;;;;;;;;;2.80;99.90;;;;;;4994345;28;19918;-79
2022/02/02 02:35:33;;;;;;;;;;;2.80;99.90;;;;;;4993260;28;20072;-80
2022/02/02 02:57:11;;;;;;;;;;;3.00;99.90;;;;;;4993033;28;19955;-79
2022/02/02 03:00:32;;;;;;;;;;;3.00;99.90;;;;;;4972595;28;20587;-79
2022/02/02 03:30:04;;;;;;;;;;;3.00;99.90;;;;;;4992294;28;19918;-79
2022/02/02 03:52:33;;;;;;;;;;;3.10;99.90;;;;;;4991045;28;20020;-79
2022/02/02 03:55:03;;;;;;;;;;;3.10;99.90;;;;;;4990281;28;20312;-79
2022/02/02 03:57:48;;;;;;;;;;;3.10;99.90;;;;;;4976053;28;19925;-78
2022/02/02 04:05:47;;;;;;;;;;;3.10;99.90;;;;;;4988516;28;19925;-80
2022/02/02 04:10:44;;;;;;;;;;;3.10;99.90;;;;;;4990424;28;19972;-79
2022/02/02 04:13:21;;;;;;;;;;;3.10;99.90;;;;;;5009771;28;19909;-80
2022/02/02 05:06:48;;;;;;;;;;;3.00;99.90;;;;;;4999612;28;20044;-79
2022/02/02 05:10:09;;;;;;;;;;;3.10;99.90;;;;;;4998054;28;19921;-79
2022/02/02 05:17:22;;;;;;;;;;;3.10;99.90;;;;;;4994960;28;19917;-79
2022/02/02 05:44:35;;;;;;;;;;;3.10;99.90;;;;;;4991009;28;19929;-81
2022/02/02 05:52:30;;;;;;;;;;;3.00;99.90;;;;;;4977395;28;19914;-79
2022/02/02 05:54:56;;;;;;;;;;;3.10;99.90;;;;;;4991240;28;19918;-79
2022/02/02 05:57:23;;;;;;;;;;;3.10;99.90;;;;;;4990705;28;19968;-79
2022/02/02 05:59:49;;;;;;;;;;;3.10;99.90;;;;;;4975440;28;20258;-79
2022/02/02 06:02:14;;;;;;;;;;;3.10;99.90;;;;;;4984980;28;19964;-80
2022/02/02 06:04:45;;;;;;;;;;;3.10;99.90;;;;;;5000054;28;19929;-79
2022/02/02 06:07:11;;;;;;;;;;;3.20;99.90;;;;;;5002159;28;19914;-79
2022/02/02 06:09:39;;;;;;;;;;;3.20;99.90;;;;;;4992788;28;19924;-78
2022/02/02 06:12:05;;;;;;;;;;;3.20;99.90;;;;;;5000821;28;19921;-80
2022/02/02 06:14:31;;;;;;;;;;;3.20;99.90;;;;;;4992421;28;20353;-78
2022/02/02 06:17:01;;;;;;;;;;;3.20;99.90;;;;;;4994834;28;20025;-79
2022/02/02 06:19:27;;;;;;;;;;;3.20;99.90;;;;;;4990693;28;20937;-78
2022/02/02 06:21:58;;;;;;;;;;;3.20;99.90;;;;;;4992481;28;19918;-80
2022/02/02 06:24:33;;;;;;;;;;;3.20;99.90;;;;;;5009009;28;19933;-79
2022/02/02 06:27:11;;;;;;;;;;;3.20;99.90;;;;;;4998699;28;19953;-78
2022/02/02 06:29:41;;;;;;;;;;;3.20;99.90;;;;;;4979327;28;19984;-79
2022/02/02 06:32:11;;;;;;;;;;;3.20;99.90;;;;;;4993550;28;19914;-79
2022/02/02 06:34:44;;;;;;;;;;;3.20;99.90;;;;;;4992342;28;20727;-79
2022/02/02 06:37:11;;;;;;;;;;;3.10;99.90;;;;;;4990530;28;19918;-79
2022/02/02 06:39:37;;;;;;;;;;;3.20;99.90;;;;;;4993948;28;19988;-79
2022/02/02 06:42:04;;;;;;;;;;;3.10;99.90;;;;;;4993495;28;20369;-79
2022/02/02 06:44:30;;;;;;;;;;;3.10;99.90;;;;;;4997056;28;19968;-79
2022/02/02 06:46:56;;;;;;;;;;;3.10;99.90;;;;;;4994761;28;20442;-79
2022/02/02 06:49:22;;;;;;;;;;;3.10;99.90;;;;;;5001980;28;21238;-79
2022/02/02 06:51:59;;;;;;;;;;;3.10;99.90;;;;;;4984599;28;19913;-80
2022/02/02 06:54:43;;;;;;;;;;;3.10;99.90;;;;;;4990245;28;19914;-79
2022/02/02 06:57:35;;;;;;;;;;;3.00;99.90;;;;;;4995638;28;19963;-80
2022/02/02 07:00:23;;;;;;;;;;;3.00;99.90;;;;;;4981702;28;20008;-80
2022/02/02 07:03:09;;;;;;;;;;;3.00;99.90;;;;;;4972280;28;19918;-80
2022/02/02 07:05:54;;;;;;;;;;;3.00;99.90;;;;;;5011329;28;20410;-80
2022/02/02 07:09:13;;;;;;;;;;;3.00;99.90;;;;;;5011964;28;19924;-80
2022/02/02 07:34:43;;;;;;;;;;;3.00;99.90;;;;;;4988086;28;20398;-79
2022/02/02 07:37:11;;;;;;;;;;;3.10;99.90;;;;;;4987677;28;19920;-79
2022/02/02 07:39:38;;;;;;;;;;;3.00;99.90;;;;;;4990032;28;20277;-80
2022/02/02 07:42:06;;;;;;;;;;;3.00;99.90;;;;;;4991169;28;19914;-79
2022/02/02 07:44:35;;;;;;;;;;;3.00;99.90;;;;;;4995459;28;20008;-79
2022/02/02 07:47:05;;;;;;;;;;;2.90;99.90;;;;;;4993419;28;19918;-79
2022/02/02 07:49:35;;;;;;;;;;;2.90;99.90;;;;;;4988810;28;19921;-80
2022/02/02 07:52:01;;;;;;;;;;;2.90;99.90;;;;;;4990538;28;19920;-80
2022/02/02 07:54:34;;;;;;;;;;;2.90;99.90;;;;;;4996307;28;20008;-80
2022/02/02 07:57:02;;;;;;;;;;;3.00;99.90;;;;;;4988564;28;19949;-79
2022/02/02 07:59:41;;;;;;;;;;;3.00;99.90;;;;;;4992016;28;19918;-79
2022/02/02 08:02:07;;;;;;;;;;;3.00;99.90;;;;;;4994331;28;19957;-80
2022/02/02 08:04:33;;;;;;;;;;;3.00;99.90;;;;;;4994322;28;19960;-79
2022/02/02 08:06:59;;;;;;;;;;;3.10;99.90;;;;;;4992595;28;20389;-79
2022/02/02 08:11:52;;;;;;;;;;;3.10;99.90;;;;;;4996431;28;20313;-80
2022/02/02 08:14:18;;;;;;;;;;;3.10;99.90;;;;;;4974279;28;20373;-80
2022/02/02 08:16:44;;;;;;;;;;;3.10;99.90;;;;;;4994046;28;19914;-79
2022/02/02 08:19:10;;;;;;;;;;;3.10;99.90;;;;;;4991062;28;19918;-80
2022/02/02 08:21:35;;;;;;;;;;;3.00;99.90;;;;;;5003700;28;20368;-80
2022/02/02 08:24:01;;;;;;;;;;;3.10;99.90;;;;;;5014127;28;19968;-79
2022/02/02 08:26:26;;;;;;;;;;;3.10;99.90;;;;;;4999306;28;19929;-80
2022/02/02 08:28:56;;;;;;;;;;;3.20;99.90;;;;;;4994911;28;19918;-80
2022/02/02 08:31:24;;;;;;;;;;;3.20;99.90;;;;;;4996027;28;19917;-80
2022/02/02 08:33:50;;;;;;;;;;;3.20;99.90;;;;;;4997000;28;19913;-79
2022/02/02 08:36:19;;;;;;;;;;;3.30;99.90;;;;;;4997714;28;19918;-81
2022/02/02 08:39:02;;;;;;;;;;;3.30;99.90;;;;;;4994376;28;20017;-79
2022/02/02 08:41:36;;;;;;;;;;;3.30;99.90;;;;;;4978245;28;20333;-80
2022/02/02 08:44:17;;;;;;;;;;;3.30;99.90;;;;;;4986422;28;19925;-80
2022/02/02 08:46:52;;;;;;;;;;;3.30;99.90;;;;;;4978039;28;19928;-79
2022/02/02 08:49:18;;;;;;;;;;;3.40;99.90;;;;;;4991837;28;19965;-80
2022/02/02 08:51:46;;;;;;;;;;;3.40;99.90;;;;;;4960565;28;19922;-79
2022/02/02 08:54:24;;;;;;;;;;;3.40;99.90;;;;;;4985856;28;19917;-79
2022/02/02 08:59:25;;;;;;;;;;;3.40;99.90;;;;;;4995385;28;19918;-79
2022/02/02 09:01:52;;;;;;;;;;;3.40;99.90;;;;;;4996531;28;19914;-79
2022/02/02 09:07:02;;;;;;;;;;;3.50;99.90;;;;;;4992700;28;19964;-79
2022/02/02 09:10:13;;;;;;;;;;;3.50;99.90;;;;;;4997130;28;20374;-79
2022/02/02 09:31:35;;;;;;;;;;;3.70;99.90;;;;;;4980776;28;19925;-79
2022/02/02 09:34:10;;;;;;;;;;;3.70;99.90;;;;;;4992177;28;19918;-79
2022/02/02 09:36:39;;;;;;;;;;;3.60;99.90;;;;;;4992316;28;19936;-80
2022/02/02 09:39:12;;;;;;;;;;;3.60;99.90;;;;;;4994508;28;19933;-80
2022/02/02 09:41:44;;;;;;;;;;;3.60;99.90;;;;;;4990133;28;19914;-79
2022/02/02 09:44:13;;;;;;;;;;;3.70;99.90;;;;;;4993791;28;19924;-79
2022/02/02 09:47:03;;;;;;;;;;;3.70;99.90;;;;;;4986047;28;19914;-82
2022/02/02 09:49:45;;;;;;;;;;;3.80;99.90;;;;;;4996016;28;20463;-81
2022/02/02 09:52:14;;;;;;;;;;;3.80;99.90;;;;;;4986338;28;19913;-81
2022/02/02 09:54:51;;;;;;;;;;;3.90;99.90;;;;;;4993222;28;19918;-79
2022/02/02 09:58:28;;;;;;;;;;;3.90;99.90;;;;;;4971955;28;20396;-82
2022/02/02 10:05:45;;;;;;;;;;;3.90;99.90;;;;;;4975988;28;19918;-78
2022/02/02 10:11:02;;;;;;;;;;;4.00;99.90;;;;;;4988278;28;19918;-80
2022/02/02 10:14:13;;;;;;;;;;;4.10;99.90;;;;;;4990890;28;19952;-79
2022/02/02 10:16:41;;;;;;;;;;;4.10;99.90;;;;;;4989412;28;19955;-78
2022/02/02 10:19:14;;;;;;;;;;;4.30;99.90;;;;;;4990809;28;19925;-78
2022/02/02 10:21:40;;;;;;;;;;;4.40;99.90;;;;;;4993809;28;19918;-80
2022/02/02 10:24:05;;;;;;;;;;;4.50;99.90;;;;;;4998693;28;19951;-83
2022/02/02 10:26:31;;;;;;;;;;;4.60;99.90;;;;;;4979203;28;20323;-78
2022/02/02 10:29:05;;;;;;;;;;;4.60;99.90;;;;;;4990377;28;19956;-78
2022/02/02 10:31:38;;;;;;;;;;;4.70;99.90;;;;;;4991202;28;19914;-79
2022/02/02 10:34:15;;;;;;;;;;;4.80;99.90;;;;;;4986553;28;20253;-80
2022/02/02 10:36:41;;;;;;;;;;;4.80;99.90;;;;;;4992619;28;19961;-81
2022/02/02 10:39:13;;;;;;;;;;;4.80;99.90;;;;;;4987519;28;20584;-78
2022/02/02 10:41:43;;;;;;;;;;;4.70;99.90;;;;;;4990058;28;19925;-79
2022/02/02 10:44:18;;;;;;;;;;;4.70;99.90;;;;;;4981316;28;19945;-80
2022/02/02 10:46:54;;;;;;;;;;;4.60;99.90;;;;;;4990313;28;19959;-80
2022/02/02 10:49:28;;;;;;;;;;;4.60;99.90;;;;;;4993894;28;19914;-81
2022/02/02 10:55:10;;;;;;;;;;;4.60;99.90;;;;;;4989760;28;19945;-79
2022/02/02 10:57:49;;;;;;;;;;;4.60;99.90;;;;;;4995320;28;20468;-80
2022/02/02 11:00:30;;;;;;;;;;;4.60;99.90;;;;;;4995495;28;19925;-80
2022/02/02 11:08:25;;;;;;;;;;;4.80;99.90;;;;;;4993429;28;20384;-79
2022/02/02 11:10:51;;;;;;;;;;;4.80;99.90;;;;;;5002850;28;19928;-81
2022/02/02 11:13:17;;;;;;;;;;;4.90;99.90;;;;;;4999676;28;19921;-79
2022/02/02 11:15:49;;;;;;;;;;;4.90;99.90;;;;;;4986526;28;19914;-77
2022/02/02 11:18:21;;;;;;;;;;;4.90;99.90;;;;;;4987342;28;19920;-81
2022/02/02 11:20:46;;;;;;;;;;;5.00;99.90;;;;;;4977868;28;19940;-78
2022/02/02 11:23:12;;;;;;;;;;;5.10;99.90;;;;;;4989963;28;19921;-78
2022/02/02 11:25:47;;;;;;;;;;;5.20;99.90;;;;;;4985590;28;20446;-79
2022/02/02 11:28:26;;;;;;;;;;;5.20;99.90;;;;;;4987031;28;20381;-81
2022/02/02 11:31:00;;;;;;;;;;;5.20;99.90;;;;;;4986343;28;19914;-77
2022/02/02 11:33:26;;;;;;;;;;;5.20;99.90;;;;;;4991153;28;19968;-80
2022/02/02 11:35:55;;;;;;;;;;;5.20;99.90;;;;;;4986025;28;19956;-80
2022/02/02 11:38:25;;;;;;;;;;;5.20;99.90;;;;;;4984465;28;19921;-77
2022/02/02 11:41:03;;;;;;;;;;;5.20;99.90;;;;;;4993903;28;19913;-78
2022/02/02 11:43:57;;;;;;;;;;;5.10;99.90;;;;;;5003452;28;19925;-77
2022/02/02 11:46:42;;;;;;;;;;;5.10;99.90;;;;;;4984189;28;20016;-76
2022/02/02 11:49:14;;;;;;;;;;;5.10;99.90;;;;;;4994520;28;19964;-82
2022/02/02 11:51:41;;;;;;;;;;;5.10;99.90;;;;;;4968737;28;19918;-79
2022/02/02 11:54:07;;;;;;;;;;;5.20;99.90;;;;;;4998404;28;20755;-77
2022/02/02 11:57:04;;;;;;;;;;;5.20;99.90;;;;;;4987522;28;20013;-80
2022/02/02 11:59:36;;;;;;;;;;;5.20;99.90;;;;;;4998071;28;20380;-77
2022/02/02 12:02:12;;;;;;;;;;;5.30;99.90;;;;;;4994582;28;19914;-77
2022/02/02 12:04:53;;;;;;;;;;;5.30;99.90;;;;;;4973751;28;19918;-77
2022/02/02 12:07:41;;;;;;;;;;;5.30;99.90;;;;;;4998078;28;19948;-78
2022/02/02 12:10:15;;;;;;;;;;;5.30;99.90;;;;;;4994853;28;20380;-80
2022/02/02 12:48:48;;;;;;;;;;;5.40;99.90;;;;;;4984035;28;20318;-79
2022/02/02 12:56:57;;;;;;;;;;;5.40;99.90;;;;;;4992019;28;20009;-80
2022/02/02 13:02:03;;;;;;;;;;;5.30;99.90;;;;;;4976398;28;19914;-77
2022/02/02 13:04:29;;;;;;;;;;;5.30;99.90;;;;;;4984560;28;19936;-79
2022/02/02 13:07:04;;;;;;;;;;;5.30;99.90;;;;;;4988170;28;20008;-81
2022/02/02 13:09:30;;;;;;;;;;;5.30;99.90;;;;;;4985585;28;19917;-81
2022/02/02 13:11:57;;;;;;;;;;;5.40;99.90;;;;;;4980612;28;20001;-78
2022/02/02 13:14:40;;;;;;;;;;;5.40;99.90;;;;;;4987176;28;19918;-80
2022/02/02 13:17:06;;;;;;;;;;;5.40;99.90;;;;;;4992527;28;19944;-78
2022/02/02 13:19:34;;;;;;;;;;;5.30;99.90;;;;;;4975081;28;19918;-80
2022/02/02 13:22:04;;;;;;;;;;;5.30;99.90;;;;;;4988815;28;19918;-78
2022/02/02 13:24:32;;;;;;;;;;;5.30;99.90;;;;;;4992165;28;20022;-80
2022/02/02 13:27:06;;;;;;;;;;;5.30;99.90;;;;;;4987820;28;20436;-78
2022/02/02 13:29:47;;;;;;;;;;;5.30;99.90;;;;;;4990179;28;20357;-80
2022/02/02 13:32:21;;;;;;;;;;;5.30;99.90;;;;;;4993724;28;20285;-78
2022/02/02 13:37:54;;;;;;;;;;;5.30;99.90;;;;;;4990324;28;19918;-80
2022/02/02 14:33:21;;;;;;;;;;;5.10;99.90;;;;;;4970255;28;19918;-79
2022/02/02 14:35:48;;;;;;;;;;;5.10;99.90;;;;;;4982284;28;20117;-79
2022/02/02 14:38:15;;;;;;;;;;;5.10;99.90;;;;;;4986709;28;20394;-80
2022/02/02 14:43:09;;;;;;;;;;;5.10;99.90;;;;;;4982429;28;21329;-79
2022/02/02 14:45:39;;;;;;;;;;;5.10;99.90;;;;;;4987551;28;20523;-80
2022/02/02 14:48:11;;;;;;;;;;;5.00;99.90;;;;;;4991051;28;19921;-79
2022/02/02 14:53:56;;;;;;;;;;;5.00;99.90;;;;;;4981916;28;20435;-79
2022/02/02 15:24:18;;;;;;;;;;;4.80;99.90;;;;;;4987516;28;19921;-78
2022/02/02 15:29:36;;;;;;;;;;;4.90;99.90;;;;;;4987541;28;19924;-79
2022/02/02 15:31:58;;;;;;;;;;;4.80;99.90;;;;;;4989138;28;20016;-79
2022/02/02 15:34:48;;;;;;;;;;;4.80;99.90;;;;;;4973478;28;20398;-80
2022/02/02 15:39:39;;;;;;;;;;;4.70;99.90;;;;;;4989960;28;19914;-79
2022/02/02 15:45:02;;;;;;;;;;;4.60;99.90;;;;;;4996162;28;19940;-78
2022/02/02 15:58:17;;;;;;;;;;;4.10;99.90;;;;;;4989353;28;19953;-79
2022/02/02 16:03:14;;;;;;;;;;;4.00;99.90;;;;;;4986137;28;19926;-80
2022/02/02 16:08:08;;;;;;;;;;;3.90;99.90;;;;;;4997348;28;20016;-79
2022/02/02 16:15:58;;;;;;;;;;;3.60;99.90;;;;;;4988135;28;20337;-78
2022/02/02 16:18:39;;;;;;;;;;;3.60;99.90;;;;;;4987654;28;19918;-79
2022/02/02 16:35:03;;;;;;;;;;;3.20;99.90;;;;;;4984725;28;20013;-79
2022/02/02 16:37:34;;;;;;;;;;;3.30;99.90;;;;;;5004570;28;19922;-79
2022/02/02 16:40:01;;;;;;;;;;;3.30;99.90;;;;;;4999486;28;19971;-80
2022/02/02 16:45:14;;;;;;;;;;;3.30;99.90;;;;;;4987217;28;19918;-79
2022/02/02 16:47:39;;;;;;;;;;;3.20;99.90;;;;;;4981438;28;19913;-79
2022/02/02 16:50:05;;;;;;;;;;;3.20;99.90;;;;;;4997456;28;19925;-79
2022/02/02 16:52:33;;;;;;;;;;;3.20;99.90;;;;;;4990428;28;19938;-79
2022/02/02 16:55:04;;;;;;;;;;;3.20;99.90;;;;;;4996299;28;20479;-79
2022/02/02 16:57:42;;;;;;;;;;;3.20;99.90;;;;;;4993037;28;20488;-79
2022/02/02 17:30:42;;;;;;;;;;;3.00;99.90;;;;;;4987093;28;19940;-79
2022/02/02 17:33:10;;;;;;;;;;;3.00;99.90;;;;;;4986857;28;20004;-79
2022/02/02 17:35:54;;;;;;;;;;;3.00;99.90;;;;;;4983263;28;19943;-80
2022/02/02 17:38:33;;;;;;;;;;;3.00;99.90;;;;;;4982609;28;19917;-80
2022/02/02 18:18:47;;;;;;;;;;;3.00;99.90;;;;;;4982958;28;19921;-79
2022/02/02 18:21:12;;;;;;;;;;;3.00;99.90;;;;;;4996874;28;19925;-79
2022/02/02 18:36:55;;;;;;;;;;;3.10;99.90;;;;;;4987107;28;19922;-79
2022/02/02 18:55:07;;;;;;;;;;;3.40;99.90;;;;;;4981294;28;20580;-79
2022/02/02 19:03:08;;;;;;;;;;;3.30;99.90;;;;;;4988975;28;19937;-79
2022/02/02 19:38:00;;;;;;;;;;;2.70;99.90;;;;;;4976641;28;20356;-79
2022/02/02 19:40:42;;;;;;;;;;;2.80;99.90;;;;;;4978612;28;19918;-79
2022/02/02 19:56:28;;;;;;;;;;;2.80;99.90;;;;;;4981212;28;19918;-79
2022/02/02 20:05:03;;;;;;;;;;;2.80;99.90;;;;;;4940978;28;19929;-79
2022/02/02 20:12:39;;;;;;;;;;;2.70;99.90;;;;;;4978342;28;19922;-80
2022/02/02 20:15:05;;;;;;;;;;;2.60;99.90;;;;;;4985321;28;19918;-78
2022/02/02 20:17:33;;;;;;;;;;;2.60;99.90;;;;;;4983111;28;19936;-77
2022/02/02 20:20:10;;;;;;;;;;;2.50;99.90;;;;;;4981073;28;19920;-80
2022/02/02 20:22:36;;;;;;;;;;;2.40;99.90;;;;;;4981010;28;20440;-80
2022/02/02 20:25:03;;;;;;;;;;;2.30;99.90;;;;;;4980717;28;20016;-78
2022/02/02 20:27:31;;;;;;;;;;;2.30;99.90;;;;;;4987836;28;19918;-78
2022/02/02 20:29:56;;;;;;;;;;;2.20;99.90;;;;;;4982289;28;20463;-79
2022/02/02 20:32:22;;;;;;;;;;;2.20;99.90;;;;;;4984352;28;19918;-79
2022/02/02 20:34:48;;;;;;;;;;;2.10;99.90;;;;;;4989296;28;20380;-77
2022/02/02 20:37:16;;;;;;;;;;;2.00;99.90;;;;;;4978358;28;19925;-79
2022/02/02 20:40:06;;;;;;;;;;;1.90;99.90;;;;;;4974572;28;20005;-77
2022/02/02 21:14:37;;;;;;;;;;;1.60;99.90;;;;;;4986068;28;19919;-80
2022/02/02 21:17:04;;;;;;;;;;;1.60;99.90;;;;;;4986445;28;20312;-79
2022/02/02 21:19:38;;;;;;;;;;;1.60;99.90;;;;;;4974936;28;19925;-79
2022/02/02 21:22:05;;;;;;;;;;;1.60;99.90;;;;;;4979043;28;19922;-78
2022/02/02 21:24:49;;;;;;;;;;;1.60;99.90;;;;;;4983129;28;19918;-79
2022/02/02 21:27:26;;;;;;;;;;;1.60;99.90;;;;;;4983268;28;19937;-77
2022/02/02 21:29:52;;;;;;;;;;;1.50;99.90;;;;;;4985163;28;19956;-79
2022/02/02 21:32:19;;;;;;;;;;;1.50;99.90;;;;;;4985318;28;20472;-79
2022/02/02 21:34:45;;;;;;;;;;;1.50;99.90;;;;;;4974379;28;19918;-79
2022/02/02 21:37:11;;;;;;;;;;;1.50;99.90;;;;;;4987633;28;19914;-77
2022/02/02 21:39:44;;;;;;;;;;;1.50;99.90;;;;;;4985802;28;20415;-78
2022/02/02 21:42:13;;;;;;;;;;;1.50;99.90;;;;;;4990585;28;19924;-78
2022/02/02 21:44:41;;;;;;;;;;;1.50;99.90;;;;;;4988971;28;19988;-78
2022/02/02 21:47:10;;;;;;;;;;;1.50;99.90;;;;;;4985916;28;19957;-77
2022/02/02 21:49:35;;;;;;;;;;;1.40;99.90;;;;;;4975872;28;19914;-80
2022/02/02 21:52:08;;;;;;;;;;;1.50;99.90;;;;;;4971529;28;20685;-80
2022/02/02 21:54:35;;;;;;;;;;;1.50;99.90;;;;;;4989008;28;19913;-77
2022/02/02 21:57:02;;;;;;;;;;;1.50;99.90;;;;;;4988857;28;19914;-79
2022/02/02 21:59:28;;;;;;;;;;;1.50;99.90;;;;;;4984421;28;19949;-78
2022/02/02 22:01:54;;;;;;;;;;;1.50;99.90;;;;;;4990367;28;19956;-77
2022/02/02 22:04:19;;;;;;;;;;;1.60;99.90;;;;;;4979343;28;19922;-80
2022/02/02 22:06:45;;;;;;;;;;;1.50;99.90;;;;;;4976740;28;19918;-78
2022/02/02 22:09:10;;;;;;;;;;;1.50;99.90;;;;;;4984461;28;19971;-77
2022/02/02 22:11:36;;;;;;;;;;;1.50;99.90;;;;;;4990342;28;20024;-77
2022/02/02 22:14:07;;;;;;;;;;;1.50;99.90;;;;;;4992442;28;19913;-79
2022/02/02 22:16:34;;;;;;;;;;;1.50;99.90;;;;;;4991966;28;19921;-77
2022/02/02 22:19:00;;;;;;;;;;;1.50;99.90;;;;;;4995930;28;20328;-78
2022/02/02 22:21:25;;;;;;;;;;;1.50;99.90;;;;;;4993565;28;19921;-78
2022/02/02 22:23:51;;;;;;;;;;;1.50;99.90;;;;;;4991789;28;20376;-77
2022/02/02 22:26:19;;;;;;;;;;;1.50;99.90;;;;;;4987127;28;19924;-77
2022/02/02 22:28:45;;;;;;;;;;;1.50;99.90;;;;;;4993758;28;19972;-78
2022/02/02 22:31:11;;;;;;;;;;;1.50;99.90;;;;;;4993299;28;19914;-78
2022/02/02 22:33:36;;;;;;;;;;;1.50;99.90;;;;;;4992709;28;20005;-79
2022/02/02 22:36:03;;;;;;;;;;;1.50;99.90;;;;;;4983718;28;19921;-78
2022/02/02 22:38:29;;;;;;;;;;;1.40;99.90;;;;;;5001623;28;19922;-77
2022/02/02 22:40:57;;;;;;;;;;;1.30;99.90;;;;;;4995555;28;20265;-77
2022/02/02 22:43:22;;;;;;;;;;;1.40;99.90;;;;;;4992474;28;19925;-79
2022/02/02 22:45:50;;;;;;;;;;;1.30;99.90;;;;;;5001273;28;19917;-78
2022/02/02 22:48:20;;;;;;;;;;;1.30;99.90;;;;;;4976268;28;20512;-77
2022/02/02 22:50:46;;;;;;;;;;;1.30;99.90;;;;;;4992367;28;19914;-77
2022/02/02 22:53:11;;;;;;;;;;;1.30;99.90;;;;;;4989584;28;19925;-77
2022/02/02 22:55:37;;;;;;;;;;;1.20;99.90;;;;;;4975607;28;20383;-78
2022/02/02 22:58:03;;;;;;;;;;;1.20;99.90;;;;;;4993087;28;19918;-78
2022/02/02 23:00:35;;;;;;;;;;;1.20;99.90;;;;;;4993395;28;19937;-78
2022/02/02 23:03:03;;;;;;;;;;;1.10;99.90;;;;;;5011097;28;19920;-77
2022/02/02 23:05:39;;;;;;;;;;;1.10;99.90;;;;;;4993194;28;19937;-77
2022/02/02 23:08:07;;;;;;;;;;;1.10;99.90;;;;;;4991732;28;20130;-79
2022/02/02 23:10:34;;;;;;;;;;;1.10;99.90;;;;;;4979438;28;20498;-77
2022/02/02 23:13:00;;;;;;;;;;;1.10;99.90;;;;;;4992387;28;19914;-78
2022/02/02 23:16:14;;;;;;;;;;;1.10;99.90;;;;;;4992182;28;20049;-79
2022/02/02 23:18:19;;;;;;;;;;;1.10;99.90;;;;;;4975290;28;19925;-77
2022/02/02 23:20:48;;;;;;;;;;;1.00;99.90;;;;;;4973988;28;20249;-77
2022/02/02 23:23:16;;;;;;;;;;;1.00;99.90;;;;;;4984004;28;20381;-77
2022/02/02 23:25:42;;;;;;;;;;;1.00;99.90;;;;;;4974625;28;19956;-78
2022/02/02 23:28:09;;;;;;;;;;;0.90;99.90;;;;;;4989703;28;19961;-78
2022/02/02 23:30:35;;;;;;;;;;;0.90;99.90;;;;;;4990276;28;19914;-77
2022/02/02 23:33:02;;;;;;;;;;;0.90;99.90;;;;;;4988121;28;20373;-77
2022/02/02 23:35:28;;;;;;;;;;;0.90;99.90;;;;;;4989779;28;20384;-77
2022/02/02 23:37:54;;;;;;;;;;;0.80;99.90;;;;;;4992137;28;19922;-79
2022/02/02 23:40:20;;;;;;;;;;;0.80;99.90;;;;;;4981304;28;20016;-78
2022/02/02 23:42:46;;;;;;;;;;;0.80;99.90;;;;;;4972300;28;20396;-78
2022/02/02 23:45:11;;;;;;;;;;;0.80;99.90;;;;;;4988040;28;19918;-77
2022/02/02 23:47:44;;;;;;;;;;;0.80;99.90;;;;;;4982878;28;19922;-77
2022/02/02 23:50:13;;;;;;;;;;;0.80;99.90;;;;;;4984635;28;19940;-77
2022/02/02 23:52:51;;;;;;;;;;;0.80;99.90;;;;;;4968458;28;19966;-79
2022/02/02 23:55:31;;;;;;;;;;;0.80;99.90;;;;;;4993971;28;19920;-78
2022/02/02 23:58:13;;;;;;;;;;;0.80;99.90;;;;;;5000444;28;19924;-77
